createdAt,value
2022-11-12T00:02:58.271Z,6.83
2022-11-12T00:05:45.453Z,6.78
2022-11-12T00:08:32.303Z,6.72
2022-11-12T00:11:18.820Z,6.68
2022-11-12T00:14:06.506Z,6.66
2022-11-12T00:16:53.194Z,6.65
2022-11-12T00:19:39.909Z,6.65
2022-11-12T00:22:26.050Z,6.64
2022-11-12T00:25:12.476Z,6.64
2022-11-12T00:28:10.002Z,6.62
2022-11-12T00:30:56.613Z,6.58
2022-11-12T00:33:44.099Z,6.55
2022-11-12T00:36:30.834Z,6.54
2022-11-12T00:39:17.372Z,6.53
2022-11-12T00:42:04.267Z,6.52
2022-11-12T00:44:50.618Z,6.51
2022-11-12T00:47:37.372Z,6.51
2022-11-12T00:50:23.997Z,6.52
2022-11-12T00:53:10.588Z,6.52
2022-11-12T00:56:06.653Z,6.49
2022-11-12T00:58:52.892Z,6.46
2022-11-12T01:02:05.721Z,6.42
2022-11-12T01:04:52.865Z,6.40
2022-11-12T01:07:41.813Z,6.38
2022-11-12T01:10:28.149Z,6.34
2022-11-12T01:13:14.832Z,6.30
2022-11-12T01:16:25.444Z,6.27
2022-11-12T01:19:14.308Z,6.24
2022-11-12T01:22:00.866Z,6.23
2022-11-12T01:24:48.218Z,6.23
2022-11-12T01:27:35.862Z,6.23
2022-11-12T01:30:22.681Z,6.19
2022-11-12T01:33:08.894Z,6.16
2022-11-12T01:35:59.243Z,6.12
2022-11-12T01:38:46.964Z,6.09
2022-11-12T01:41:35.916Z,6.08
2022-11-12T01:44:26.858Z,6.08
2022-11-12T01:47:21.671Z,6.09
2022-11-12T01:50:23.884Z,6.12
2022-11-12T01:53:13.436Z,6.15
2022-11-12T01:56:02.525Z,6.17
2022-11-12T01:58:55.927Z,6.19
2022-11-12T02:01:42.385Z,6.19
2022-11-12T02:04:28.881Z,6.20
2022-11-12T02:07:16.431Z,6.23
2022-11-12T02:10:04.491Z,6.25
2022-11-12T02:13:12.126Z,6.27
2022-11-12T02:15:58.540Z,6.29
2022-11-12T02:18:45.415Z,6.30
2022-11-12T02:21:32.594Z,6.31
2022-11-12T02:24:19.015Z,6.33
2022-11-12T02:27:06.279Z,6.34
2022-11-12T02:29:52.671Z,6.35
2022-11-12T02:32:39.460Z,6.36
2022-11-12T02:35:25.907Z,6.35
2022-11-12T02:38:12.780Z,6.33
2022-11-12T02:40:59.232Z,6.30
2022-11-12T02:43:46.058Z,6.24
2022-11-12T02:46:32.942Z,6.21
2022-11-12T02:49:19.717Z,6.15
2022-11-12T02:52:06.361Z,6.12
2022-11-12T02:54:52.658Z,6.09
2022-11-12T02:57:39.955Z,6.07
2022-11-12T03:00:26.507Z,6.05
2022-11-12T03:03:13.157Z,6.02
2022-11-12T03:06:01.172Z,5.97
2022-11-12T03:08:47.848Z,5.94
2022-11-12T03:11:34.360Z,5.90
2022-11-12T03:14:20.724Z,5.87
2022-11-12T03:17:07.056Z,5.84
2022-11-12T03:19:55.464Z,5.84
2022-11-12T03:22:42.897Z,5.83
2022-11-12T03:25:30.017Z,5.83
2022-11-12T03:28:17.065Z,5.82
2022-11-12T03:31:03.333Z,5.81
2022-11-12T03:33:50.031Z,5.80
2022-11-12T03:36:36.523Z,5.77
2022-11-12T03:39:23.043Z,5.74
2022-11-12T03:42:09.649Z,5.71
2022-11-12T03:44:57.252Z,5.67
2022-11-12T03:47:48.809Z,5.61
2022-11-12T03:50:35.696Z,5.56
2022-11-12T03:53:21.981Z,5.51
2022-11-12T03:56:08.435Z,5.47
2022-11-12T03:58:55.143Z,5.44
2022-11-12T04:01:41.477Z,5.42
2022-11-12T04:04:47.676Z,5.39
2022-11-12T04:07:52.753Z,5.34
2022-11-12T04:10:39.396Z,5.30
2022-11-12T04:13:29.011Z,5.27
2022-11-12T04:16:36.552Z,5.24
2022-11-12T04:19:41.176Z,5.21
2022-11-12T04:22:27.716Z,5.19
2022-11-12T04:25:32.744Z,5.19
2022-11-12T04:28:19.517Z,5.19
2022-11-12T04:31:05.865Z,5.21
2022-11-12T04:33:52.116Z,5.22
2022-11-12T04:36:39.146Z,5.24
2022-11-12T04:39:25.468Z,5.25
2022-11-12T04:42:30.550Z,5.24
2022-11-12T04:45:17.021Z,5.26
2022-11-12T04:48:03.988Z,5.25
2022-11-12T04:50:55.101Z,5.27
2022-11-12T04:53:41.515Z,5.28
2022-11-12T04:56:28.121Z,5.30
2022-11-12T04:59:14.951Z,5.30
2022-11-12T05:02:01.277Z,5.31
2022-11-12T05:04:47.894Z,5.31
2022-11-12T05:07:34.246Z,5.30
2022-11-12T05:10:20.709Z,5.28
2022-11-12T05:13:07.129Z,5.26
2022-11-12T05:15:53.732Z,5.21
2022-11-12T05:18:40.105Z,5.16
2022-11-12T05:21:45.660Z,5.13
2022-11-12T05:24:42.526Z,5.08
2022-11-12T05:27:29.522Z,5.05
2022-11-12T05:30:15.844Z,5.02
2022-11-12T05:33:02.549Z,5.00
2022-11-12T05:35:48.582Z,4.98
2022-11-12T05:38:34.955Z,4.98
2022-11-12T05:41:21.263Z,4.97
2022-11-12T05:44:07.709Z,4.96
2022-11-12T05:46:54.923Z,4.95
2022-11-12T05:49:41.750Z,4.94
2022-11-12T05:52:28.616Z,4.94
2022-11-12T05:55:15.448Z,4.95
2022-11-12T05:58:06.100Z,4.96
2022-11-12T06:00:52.649Z,4.95
2022-11-12T06:03:40.013Z,4.93
2022-11-12T06:06:26.545Z,4.89
2022-11-12T06:09:12.927Z,4.86
2022-11-12T06:11:59.510Z,4.84
2022-11-12T06:14:46.088Z,4.83
2022-11-12T06:17:32.759Z,4.81
2022-11-12T06:20:20.220Z,4.81
2022-11-12T06:23:06.765Z,4.82
2022-11-12T06:25:53.138Z,4.84
2022-11-12T06:28:39.965Z,4.86
2022-11-12T06:31:26.679Z,4.91
2022-11-12T06:34:13.146Z,4.95
2022-11-12T06:36:59.444Z,4.99
2022-11-12T06:39:45.615Z,5.07
2022-11-12T06:42:31.912Z,5.16
2022-11-12T06:45:18.909Z,5.22
2022-11-12T06:48:05.467Z,5.30
2022-11-12T06:50:52.194Z,5.38
2022-11-12T06:53:38.676Z,5.46
2022-11-12T06:56:25.157Z,5.53
2022-11-12T06:59:11.730Z,5.60
2022-11-12T07:01:58.275Z,5.65
2022-11-12T07:04:44.487Z,5.68
2022-11-12T07:07:31.151Z,5.70
2022-11-12T07:10:18.156Z,5.70
2022-11-12T07:13:05.444Z,5.71
2022-11-12T07:15:51.674Z,5.71
2022-11-12T07:18:38.088Z,5.72
2022-11-12T07:21:24.461Z,5.74
2022-11-12T07:24:11.483Z,5.76
2022-11-12T07:26:57.840Z,5.81
2022-11-12T07:29:48.633Z,5.85
2022-11-12T07:32:38.653Z,5.87
2022-11-12T07:35:29.999Z,5.89
2022-11-12T07:38:16.239Z,5.92
2022-11-12T07:41:07.703Z,5.95
2022-11-12T07:43:54.339Z,5.98
2022-11-12T07:46:40.734Z,6.01
2022-11-12T07:49:27.071Z,6.04
2022-11-12T07:52:14.416Z,6.08
2022-11-12T07:55:00.885Z,6.12
2022-11-12T07:57:47.465Z,6.18
2022-11-12T08:00:33.912Z,6.25
2022-11-12T08:03:20.819Z,6.31
2022-11-12T08:06:07.501Z,6.37
2022-11-12T08:08:58.030Z,6.44
2022-11-12T08:11:44.383Z,6.52
2022-11-12T08:14:30.992Z,6.60
2022-11-12T08:17:17.262Z,6.67
2022-11-12T08:20:07.788Z,6.73
2022-11-12T08:23:02.071Z,6.80
2022-11-12T08:25:48.705Z,6.87
2022-11-12T08:28:37.041Z,6.95
2022-11-12T08:31:24.000Z,7.02
2022-11-12T08:34:16.066Z,7.10
2022-11-12T08:37:05.093Z,7.17
2022-11-12T08:39:51.764Z,7.26
2022-11-12T08:42:38.296Z,7.34
2022-11-12T08:45:24.833Z,7.43
2022-11-12T08:48:14.494Z,7.51
2022-11-12T08:51:03.365Z,7.60
2022-11-12T08:53:49.941Z,7.70
2022-11-12T08:56:38.402Z,7.79
2022-11-12T08:59:25.055Z,7.89
2022-11-12T09:02:12.912Z,8.00
2022-11-12T09:04:59.471Z,8.11
2022-11-12T09:07:50.656Z,8.23
2022-11-12T09:10:38.084Z,8.35
2022-11-12T09:13:24.633Z,8.45
2022-11-12T09:16:11.137Z,8.57
2022-11-12T09:18:57.746Z,8.69
2022-11-12T09:21:44.029Z,8.78
2022-11-12T09:24:30.608Z,8.88
2022-11-12T09:27:17.389Z,8.98
2022-11-12T09:30:04.804Z,9.07
2022-11-12T09:32:57.312Z,9.15
2022-11-12T09:35:45.571Z,9.25
2022-11-12T09:38:33.802Z,9.32
2022-11-12T09:41:28.321Z,9.43
2022-11-12T09:44:22.225Z,9.53
2022-11-12T09:47:19.083Z,9.62
2022-11-12T09:50:36.211Z,9.72
2022-11-12T09:53:50.503Z,9.84
2022-11-12T09:56:37.106Z,9.93
2022-11-12T09:59:29.491Z,10.01
2022-11-12T10:02:28.119Z,10.11
2022-11-12T10:05:35.947Z,10.19
2022-11-12T10:08:43.188Z,10.27
2022-11-12T10:12:04.014Z,10.38
2022-11-12T10:15:34.008Z,10.47
2022-11-12T10:18:50.806Z,10.56
2022-11-12T10:21:50.845Z,10.66
2022-11-12T10:24:40.147Z,10.76
2022-11-12T10:27:36.552Z,10.86
2022-11-12T10:30:25.292Z,10.95
2022-11-12T10:33:15.442Z,11.05
2022-11-12T10:36:22.172Z,11.13
2022-11-12T10:39:08.504Z,11.21
2022-11-12T10:42:08.778Z,11.24
2022-11-12T10:45:20.580Z,11.34
2022-11-12T10:48:25.877Z,11.44
2022-11-12T10:51:40.593Z,11.51
2022-11-12T10:54:26.695Z,11.61
2022-11-12T10:57:25.430Z,11.70
2022-11-12T11:00:17.045Z,11.82
2022-11-12T11:03:29.890Z,11.95
2022-11-12T11:06:16.502Z,12.09
2022-11-12T11:09:16.465Z,12.15
2022-11-12T11:12:03.475Z,12.24
2022-11-12T11:15:11.686Z,12.32
2022-11-12T11:17:58.102Z,12.40
2022-11-12T11:20:51.825Z,12.46
2022-11-12T11:23:51.169Z,12.53
2022-11-12T11:26:52.398Z,12.59
2022-11-12T11:30:06.153Z,12.69
2022-11-12T11:33:05.543Z,12.80
2022-11-12T11:36:14.955Z,12.90
2022-11-12T11:39:16.842Z,13.02
2022-11-12T11:42:17.087Z,13.11
2022-11-12T11:45:26.208Z,13.24
2022-11-12T11:48:27.923Z,13.35
2022-11-12T11:51:36.768Z,13.45
2022-11-12T11:54:41.202Z,13.60
2022-11-12T11:57:39.984Z,13.72
2022-11-12T12:00:35.453Z,13.86
2022-11-12T12:03:31.743Z,14.01
2022-11-12T12:06:26.989Z,14.19
2022-11-12T12:09:46.235Z,14.36
2022-11-12T12:12:51.298Z,14.53
2022-11-12T12:15:52.779Z,14.65
2022-11-12T12:18:59.964Z,14.76
2022-11-12T12:21:51.303Z,14.90
2022-11-12T12:24:49.118Z,14.98
2022-11-12T12:27:48.511Z,15.08
2022-11-12T12:30:37.696Z,15.23
2022-11-12T12:33:33.888Z,15.33
2022-11-12T12:36:27.281Z,15.35
2022-11-12T12:39:27.343Z,15.33
2022-11-12T12:42:21.546Z,15.35
2022-11-12T12:45:30.735Z,15.42
2022-11-12T12:48:25.921Z,15.48
2022-11-12T12:51:13.397Z,15.58
2022-11-12T12:54:00.072Z,15.66
2022-11-12T12:56:48.618Z,15.69
2022-11-12T12:59:35.215Z,15.68
2022-11-12T13:02:24.848Z,15.68
2022-11-12T13:05:33.073Z,15.62
2022-11-12T13:08:25.364Z,15.69
2022-11-12T13:11:59.943Z,15.73
2022-11-12T13:14:53.133Z,15.74
2022-11-12T13:17:46.418Z,15.77
2022-11-12T13:20:39.223Z,15.78
2022-11-12T13:24:06.619Z,15.76
2022-11-12T13:27:00.517Z,15.78
2022-11-12T13:29:49.163Z,15.90
2022-11-12T13:32:38.203Z,15.97
2022-11-12T13:35:24.551Z,16.00
2022-11-12T13:38:12.318Z,16.05
2022-11-12T13:41:10.895Z,16.08
2022-11-12T13:43:57.566Z,16.10
2022-11-12T13:46:45.130Z,16.11
2022-11-12T13:49:32.434Z,16.10
2022-11-12T13:52:19.873Z,16.07
2022-11-12T13:55:17.954Z,16.09
2022-11-12T13:58:06.372Z,16.08
2022-11-12T14:00:55.765Z,16.07
2022-11-12T14:03:48.710Z,16.00
2022-11-12T14:06:37.785Z,15.95
2022-11-12T14:10:00.475Z,15.93
2022-11-12T14:13:08.446Z,15.90
2022-11-12T14:16:19.618Z,15.78
2022-11-12T14:19:19.004Z,15.67
2022-11-12T14:22:08.493Z,15.62
2022-11-12T14:25:01.166Z,15.50
2022-11-12T14:27:50.058Z,15.34
2022-11-12T14:30:45.931Z,15.16
2022-11-12T14:33:33.031Z,14.86
2022-11-12T14:36:19.973Z,14.56
2022-11-12T14:39:06.867Z,14.24
2022-11-12T14:41:55.774Z,13.98
2022-11-12T14:44:42.812Z,13.74
2022-11-12T14:47:31.661Z,13.43
2022-11-12T14:50:29.001Z,13.16
2022-11-12T14:53:25.183Z,12.88
2022-11-12T14:56:23.431Z,12.60
2022-11-12T14:59:15.364Z,12.36
2022-11-12T15:05:22.415Z,11.87
2022-11-12T15:08:12.344Z,11.67
2022-11-12T15:11:30.303Z,11.50
2022-11-12T15:14:24.132Z,11.28
2022-11-12T15:17:42.560Z,11.09
2022-11-12T15:20:29.082Z,10.90
2022-11-12T15:23:18.847Z,10.76
2022-11-12T15:26:15.173Z,10.63
2022-11-12T15:29:29.546Z,10.50
2022-11-12T15:32:15.753Z,10.37
2022-11-12T15:35:02.641Z,10.26
2022-11-12T15:37:49.456Z,10.16
2022-11-12T15:40:45.891Z,10.06
2022-11-12T15:43:36.481Z,9.95
2022-11-12T15:46:23.281Z,9.85
2022-11-12T15:49:13.011Z,9.77
2022-11-12T15:51:59.377Z,9.68
2022-11-12T15:54:46.371Z,9.60
2022-11-12T15:57:37.299Z,9.52
2022-11-12T16:00:32.594Z,9.45
2022-11-12T16:03:22.449Z,9.38
2022-11-12T16:06:12.046Z,9.30
2022-11-12T16:08:58.559Z,9.20
2022-11-12T16:11:46.046Z,9.10
2022-11-12T16:14:32.513Z,9.01
2022-11-12T16:17:19.511Z,8.90
2022-11-12T16:20:35.967Z,8.83
2022-11-12T16:23:22.558Z,8.73
2022-11-12T16:26:13.185Z,8.66
2022-11-12T16:29:00.598Z,8.59
2022-11-12T16:31:47.444Z,8.52
2022-11-12T16:34:34.030Z,8.49
2022-11-12T16:37:20.721Z,8.46
2022-11-12T16:40:13.521Z,8.42
2022-11-12T16:42:59.706Z,8.39
2022-11-12T16:45:46.251Z,8.36
2022-11-12T16:48:32.873Z,8.35
2022-11-12T16:51:21.024Z,8.34
2022-11-12T16:54:08.120Z,8.34
2022-11-12T16:56:54.598Z,8.34
2022-11-12T16:59:41.527Z,8.33
2022-11-12T17:02:28.173Z,8.27
2022-11-12T17:05:17.518Z,8.22
2022-11-12T17:08:03.649Z,8.17
2022-11-12T17:10:50.251Z,8.11
2022-11-12T17:13:38.749Z,8.05
2022-11-12T17:16:25.647Z,8.00
2022-11-12T17:19:11.870Z,7.95
2022-11-12T17:21:58.446Z,7.91
2022-11-12T17:24:44.651Z,7.87
2022-11-12T17:27:31.435Z,7.81
2022-11-12T17:30:18.336Z,7.78
2022-11-12T17:33:04.991Z,7.74
2022-11-12T17:35:51.342Z,7.69
2022-11-12T17:38:39.916Z,7.65
2022-11-12T17:41:28.729Z,7.62
2022-11-12T17:44:17.801Z,7.59
2022-11-12T17:47:04.052Z,7.56
2022-11-12T17:49:51.118Z,7.52
2022-11-12T17:52:37.409Z,7.47
2022-11-12T17:55:24.069Z,7.41
2022-11-12T17:58:10.942Z,7.36
2022-11-12T18:01:24.139Z,7.31
2022-11-12T18:04:11.125Z,7.24
2022-11-12T18:06:57.698Z,7.20
2022-11-12T18:09:43.876Z,7.17
2022-11-12T18:12:30.397Z,7.14
2022-11-12T18:15:17.115Z,7.13
2022-11-12T18:18:07.060Z,7.13
2022-11-12T18:20:53.437Z,7.15
2022-11-12T18:23:41.480Z,7.18
2022-11-12T18:26:28.149Z,7.22
2022-11-12T18:29:14.595Z,7.27
2022-11-12T18:32:01.284Z,7.30
2022-11-12T18:34:47.937Z,7.35
2022-11-12T18:37:34.710Z,7.39
2022-11-12T18:40:22.278Z,7.44
2022-11-12T18:43:08.555Z,7.50
2022-11-12T18:45:56.553Z,7.55
2022-11-12T18:48:43.271Z,7.61
2022-11-12T18:51:29.804Z,7.67
2022-11-12T18:54:16.589Z,7.72
2022-11-12T18:57:03.152Z,7.75
2022-11-12T18:59:52.172Z,7.78
2022-11-12T19:02:39.066Z,7.80
2022-11-12T19:05:26.059Z,7.80
2022-11-12T19:08:12.553Z,7.81
2022-11-12T19:11:00.438Z,7.80
2022-11-12T19:13:53.817Z,7.81
2022-11-12T19:16:44.870Z,7.80
2022-11-12T19:19:31.451Z,7.80
2022-11-12T19:22:17.847Z,7.81
2022-11-12T19:25:04.569Z,7.81
2022-11-12T19:27:51.099Z,7.82
2022-11-12T19:30:38.010Z,7.83
2022-11-12T19:33:24.522Z,7.83
2022-11-12T19:36:14.755Z,7.81
2022-11-12T19:39:02.646Z,7.82
2022-11-12T19:41:49.181Z,7.81
2022-11-12T19:44:35.461Z,7.82
2022-11-12T19:47:22.090Z,7.84
2022-11-12T19:50:09.824Z,7.85
2022-11-12T19:52:56.441Z,7.86
2022-11-12T19:55:42.953Z,7.88
2022-11-12T19:58:29.843Z,7.88
2022-11-12T20:01:19.049Z,7.88
2022-11-12T20:04:06.154Z,7.86
2022-11-12T20:06:52.412Z,7.87
2022-11-12T20:09:39.184Z,7.87
2022-11-12T20:12:27.165Z,7.88
2022-11-12T20:15:13.516Z,7.91
2022-11-12T20:18:00.124Z,7.92
2022-11-12T20:20:50.838Z,7.92
2022-11-12T20:23:42.758Z,7.90
2022-11-12T20:26:29.685Z,7.89
2022-11-12T20:29:15.906Z,7.89
2022-11-12T20:32:02.658Z,7.88
2022-11-12T20:34:48.963Z,7.89
2022-11-12T20:37:35.871Z,7.92
2022-11-12T20:40:22.363Z,7.93
2022-11-12T20:43:08.962Z,7.94
2022-11-12T20:45:55.976Z,7.94
2022-11-12T20:48:43.834Z,7.93
2022-11-12T20:51:30.461Z,7.93
2022-11-12T20:54:17.006Z,7.94
2022-11-12T20:57:03.516Z,7.96
2022-11-12T20:59:51.464Z,7.99
2022-11-12T21:02:38.271Z,7.97
2022-11-12T21:05:25.086Z,7.99
2022-11-12T21:08:11.314Z,8.03
2022-11-12T21:10:59.488Z,8.05
2022-11-12T21:13:46.141Z,8.06
2022-11-12T21:16:32.919Z,8.09
2022-11-12T21:19:19.386Z,8.10
2022-11-12T21:22:05.789Z,8.11
2022-11-12T21:24:52.354Z,8.13
2022-11-12T21:27:39.078Z,8.16
2022-11-12T21:30:25.853Z,8.15
2022-11-12T21:33:12.836Z,8.14
2022-11-12T21:35:59.592Z,8.13
2022-11-12T21:38:47.265Z,8.13
2022-11-12T21:41:33.554Z,8.14
2022-11-12T21:44:20.197Z,8.17
2022-11-12T21:47:06.794Z,8.17
2022-11-12T21:49:53.444Z,8.17
2022-11-12T21:52:39.843Z,8.18
2022-11-12T21:55:26.354Z,8.21
2022-11-12T21:58:12.857Z,8.24
2022-11-12T22:01:13.978Z,8.25
2022-11-12T22:04:00.587Z,8.26
2022-11-12T22:06:46.770Z,8.29
2022-11-12T22:09:33.653Z,8.33
2022-11-12T22:12:20.215Z,8.37
2022-11-12T22:15:07.182Z,8.41
2022-11-12T22:17:54.076Z,8.42
2022-11-12T22:20:40.878Z,8.43
2022-11-12T22:23:27.720Z,8.44
2022-11-12T22:26:16.842Z,8.46
2022-11-12T22:29:03.343Z,8.49
2022-11-12T22:31:49.442Z,8.51
2022-11-12T22:34:36.117Z,8.52
2022-11-12T22:37:22.832Z,8.53
2022-11-12T22:40:13.381Z,8.54
2022-11-12T22:43:00.075Z,8.56
2022-11-12T22:45:46.401Z,8.56
2022-11-12T22:48:33.064Z,8.57
2022-11-12T22:51:21.831Z,8.58
2022-11-12T22:54:10.207Z,8.59
2022-11-12T22:56:56.363Z,8.58
2022-11-12T22:59:43.740Z,8.59
2022-11-12T23:02:30.448Z,8.59
2022-11-12T23:05:16.683Z,8.60
2022-11-12T23:08:04.074Z,8.62
2022-11-12T23:10:50.735Z,8.61
2022-11-12T23:13:38.125Z,8.60
2022-11-12T23:16:27.589Z,8.61
2022-11-12T23:19:14.143Z,8.61
2022-11-12T23:22:03.990Z,8.62
2022-11-12T23:24:52.800Z,8.63
2022-11-12T23:27:39.043Z,8.64
2022-11-12T23:30:28.173Z,8.64
2022-11-12T23:33:14.430Z,8.64
2022-11-12T23:36:08.479Z,8.65
2022-11-12T23:38:55.786Z,8.65
2022-11-12T23:41:42.108Z,8.67
2022-11-12T23:44:28.565Z,8.69
2022-11-12T23:47:14.693Z,8.70
2022-11-12T23:50:00.938Z,8.70
2022-11-12T23:52:47.276Z,8.70
2022-11-12T23:55:38.285Z,8.70
2022-11-12T23:58:25.761Z,8.71
